Time;durP1;ratioP1;P1;durP2;ratioP2;P2;SDS_P1;SDS_P2;PMS_P1;PMS_P2;Temp;Humidity;BMP_temperature;BMP_pressure;BME280_temperature;BME280_humidity;BME280_pressure;Samples;Min_cycle;Max_cycle;Signal;HPM_P1;HPM_P2
2023/05/31 00:02:14;;;;;;;4.60;1.50;;;11.90;99.90;;;;;;5134570;28;20074;-76
2023/05/31 00:04:39;;;;;;;3.80;1.67;;;11.90;99.90;;;;;;5081979;28;20046;-76
2023/05/31 00:07:06;;;;;;;3.58;1.27;;;11.80;99.90;;;;;;5134866;28;20043;-77
2023/05/31 00:09:32;;;;;;;4.50;1.38;;;11.80;99.90;;;;;;5133922;28;20050;-76
2023/05/31 00:11:58;;;;;;;4.47;1.55;;;11.70;99.90;;;;;;5133920;28;20070;-77
2023/05/31 00:14:23;;;;;;;6.30;1.75;;;11.70;99.90;;;;;;5136276;27;20040;-77
2023/05/31 00:16:49;;;;;;;3.83;1.70;;;11.70;99.90;;;;;;5119678;27;20047;-77
2023/05/31 00:19:15;;;;;;;3.58;1.63;;;11.70;99.90;;;;;;5119345;27;20046;-77
2023/05/31 00:21:44;;;;;;;3.03;1.45;;;11.70;99.90;;;;;;5137465;27;20083;-77
2023/05/31 00:24:10;;;;;;;4.60;1.73;;;11.60;99.90;;;;;;5119564;27;20092;-77
2023/05/31 00:26:36;;;;;;;4.65;1.73;;;11.60;99.90;;;;;;5119259;27;20425;-77
2023/05/31 00:29:01;;;;;;;4.18;1.80;;;11.60;99.90;;;;;;5118582;27;20082;-76
2023/05/31 00:31:27;;;;;;;6.68;1.83;;;11.50;99.90;;;;;;5119160;27;20043;-77
2023/05/31 00:33:53;;;;;;;3.90;1.63;;;11.50;99.90;;;;;;5137795;27;20051;-77
2023/05/31 00:36:19;;;;;;;4.30;1.60;;;11.50;99.90;;;;;;5137122;27;20057;-76
2023/05/31 00:38:45;;;;;;;3.25;1.20;;;11.50;99.90;;;;;;5118719;27;20478;-77
2023/05/31 00:41:10;;;;;;;6.97;1.70;;;11.50;99.90;;;;;;5136979;27;20054;-77
2023/05/31 00:43:36;;;;;;;5.60;1.80;;;11.40;99.90;;;;;;5119225;27;20044;-76
2023/05/31 00:46:02;;;;;;;4.78;1.90;;;11.40;99.90;;;;;;5136986;27;20459;-77
2023/05/31 00:48:29;;;;;;;6.72;2.00;;;11.40;99.90;;;;;;5118698;27;20051;-76
2023/05/31 00:50:55;;;;;;;4.03;1.63;;;11.40;99.90;;;;;;5118764;27;20047;-76
2023/05/31 00:53:22;;;;;;;4.90;1.92;;;11.40;99.90;;;;;;5118759;27;20130;-76
2023/05/31 00:55:51;;;;;;;6.13;2.15;;;11.40;99.90;;;;;;5119019;27;20058;-76
2023/05/31 00:58:16;;;;;;;6.43;2.20;;;10.90;99.90;;;;;;5136794;27;20091;-76
2023/05/31 01:00:43;;;;;;;4.90;2.03;;;11.40;99.90;;;;;;5118334;27;20086;-77
2023/05/31 01:03:09;;;;;;;7.03;1.95;;;11.40;99.90;;;;;;5136789;27;20078;-76
2023/05/31 01:05:35;;;;;;;6.30;2.35;;;11.40;99.90;;;;;;5136509;27;20104;-76
2023/05/31 01:08:02;;;;;;;8.82;2.20;;;11.30;99.90;;;;;;5136562;27;20043;-76
2023/05/31 01:10:29;;;;;;;6.72;1.92;;;11.30;99.90;;;;;;5102232;27;20165;-77
2023/05/31 01:13:20;;;;;;;5.53;1.90;;;11.30;99.90;;;;;;5084614;27;20047;-77
2023/05/31 01:15:55;;;;;;;5.40;2.40;;;11.30;99.90;;;;;;5102091;27;20172;-77
2023/05/31 01:18:32;;;;;;;5.57;2.20;;;11.30;99.90;;;;;;5119059;27;20035;-77
2023/05/31 01:21:01;;;;;;;7.57;2.30;;;11.30;99.90;;;;;;5136650;27;20047;-77
2023/05/31 01:24:04;;;;;;;7.53;2.15;;;11.30;99.90;;;;;;5118198;27;20039;-76
2023/05/31 01:26:44;;;;;;;5.18;2.17;;;11.30;99.90;;;;;;5116826;27;20043;-77
2023/05/31 01:29:16;;;;;;;5.95;2.00;;;11.20;99.90;;;;;;5136701;27;20131;-76
2023/05/31 01:31:45;;;;;;;6.30;2.15;;;11.20;99.90;;;;;;5137031;27;20368;-76
2023/05/31 01:34:12;;;;;;;5.07;2.03;;;11.20;99.90;;;;;;5136107;27;20051;-77
2023/05/31 01:36:38;;;;;;;4.30;2.05;;;11.10;99.90;;;;;;5117966;27;20126;-76
2023/05/31 01:39:05;;;;;;;6.25;1.80;;;11.10;99.90;;;;;;5136068;27;20508;-77
2023/05/31 01:41:39;;;;;;;4.43;2.17;;;11.10;99.90;;;;;;5135654;27;20054;-77
2023/05/31 01:44:06;;;;;;;4.82;2.10;;;11.10;99.90;;;;;;5117575;27;20039;-77
2023/05/31 01:46:31;;;;;;;6.55;2.78;;;11.00;99.90;;;;;;5135786;27;20031;-77
2023/05/31 01:48:59;;;;;;;5.70;2.40;;;11.00;99.90;;;;;;5117703;27;20070;-77
2023/05/31 01:51:26;;;;;;;5.97;2.40;;;11.00;99.90;;;;;;5136008;27;20122;-77
2023/05/31 01:53:52;;;;;;;6.80;2.88;;;10.90;99.90;;;;;;5135644;27;20495;-76
2023/05/31 01:56:22;;;;;;;5.13;2.42;;;10.90;99.90;;;;;;5135619;27;20043;-77
2023/05/31 01:58:50;;;;;;;6.70;2.38;;;10.90;99.90;;;;;;5135508;27;20051;-77
2023/05/31 02:01:18;;;;;;;7.43;2.85;;;10.90;99.90;;;;;;5135466;27;20046;-77
2023/05/31 02:03:43;;;;;;;7.30;2.72;;;10.90;99.90;;;;;;5100324;27;20429;-77
2023/05/31 02:06:12;;;;;;;4.72;2.13;;;10.80;99.90;;;;;;5117926;27;20050;-77
2023/05/31 02:08:40;;;;;;;5.72;2.10;;;10.80;99.90;;;;;;5135220;27;20051;-77
2023/05/31 02:11:06;;;;;;;9.27;2.65;;;10.80;99.90;;;;;;5083507;27;20039;-77
2023/05/31 02:13:32;;;;;;;8.07;2.88;;;10.80;99.90;;;;;;5117165;27;20097;-78
2023/05/31 02:15:58;;;;;;;4.63;2.17;;;10.70;99.90;;;;;;5101050;27;20573;-78
2023/05/31 02:18:27;;;;;;;6.07;2.65;;;10.70;99.90;;;;;;5100118;27;20074;-77
2023/05/31 02:20:54;;;;;;;5.43;1.95;;;10.70;99.90;;;;;;5135206;27;20050;-77
2023/05/31 02:23:20;;;;;;;5.82;2.20;;;10.70;99.90;;;;;;5135495;27;20081;-76
2023/05/31 02:25:47;;;;;;;8.10;2.65;;;10.70;99.90;;;;;;5135018;27;20042;-77
2023/05/31 02:28:13;;;;;;;4.38;2.03;;;10.60;99.90;;;;;;5116686;27;20058;-77
2023/05/31 02:30:40;;;;;;;6.00;2.60;;;10.60;99.90;;;;;;5099768;27;20502;-77
2023/05/31 02:33:07;;;;;;;5.70;2.33;;;10.60;99.90;;;;;;5116819;27;20429;-78
2023/05/31 02:35:33;;;;;;;7.10;2.25;;;10.60;99.90;;;;;;5134959;27;20047;-78
2023/05/31 02:37:59;;;;;;;5.00;2.22;;;10.60;99.90;;;;;;5099725;27;20117;-77
2023/05/31 02:40:25;;;;;;;5.85;2.55;;;10.60;99.90;;;;;;5116718;27;20058;-77
2023/05/31 02:42:51;;;;;;;5.80;2.60;;;10.50;99.90;;;;;;5116262;27;20479;-77
2023/05/31 02:45:17;;;;;;;6.18;2.70;;;10.50;99.90;;;;;;5099387;27;20543;-77
2023/05/31 02:47:42;;;;;;;7.78;2.63;;;10.50;99.90;;;;;;5116482;28;20047;-77
2023/05/31 02:50:10;;;;;;;6.88;2.78;;;10.50;99.90;;;;;;5134627;27;20043;-78
2023/05/31 02:52:36;;;;;;;5.10;2.13;;;10.40;99.90;;;;;;5116628;28;20040;-77
2023/05/31 02:55:03;;;;;;;6.20;2.92;;;10.40;99.90;;;;;;5116841;27;20066;-77
2023/05/31 02:57:28;;;;;;;5.50;2.25;;;10.40;99.90;;;;;;5100468;27;20112;-77
2023/05/31 03:00:13;;;;;;;5.88;2.72;;;10.40;99.90;;;;;;5135153;27;20413;-77
2023/05/31 03:02:40;;;;;;;6.20;2.83;;;10.40;99.90;;;;;;5135486;27;20484;-77
2023/05/31 03:05:08;;;;;;;5.90;2.50;;;10.40;99.90;;;;;;5134491;27;20043;-77
2023/05/31 03:07:37;;;;;;;5.30;2.00;;;10.40;99.90;;;;;;5116953;28;20051;-77
2023/05/31 03:10:04;;;;;;;8.20;2.60;;;10.40;99.90;;;;;;5099352;28;20470;-77
2023/05/31 03:12:30;;;;;;;6.35;2.97;;;10.30;99.90;;;;;;5134457;28;20116;-76
2023/05/31 03:14:56;;;;;;;7.93;3.00;;;10.30;99.90;;;;;;5134488;28;20092;-77
2023/05/31 03:17:22;;;;;;;7.25;3.25;;;10.30;99.90;;;;;;5135005;28;20129;-77
2023/05/31 03:19:48;;;;;;;7.50;2.80;;;10.30;99.90;;;;;;5116349;28;20143;-77
2023/05/31 03:22:14;;;;;;;7.13;2.97;;;10.30;99.90;;;;;;5116297;28;20494;-76
2023/05/31 03:24:40;;;;;;;9.02;2.95;;;10.30;99.90;;;;;;5134420;28;20047;-77
2023/05/31 03:27:06;;;;;;;7.53;3.20;;;10.30;99.90;;;;;;5116059;28;20390;-76
2023/05/31 03:29:33;;;;;;;5.25;2.50;;;10.40;99.90;;;;;;5116685;28;20065;-76
2023/05/31 03:31:59;;;;;;;7.97;3.63;;;10.30;99.90;;;;;;5116251;28;20425;-77
2023/05/31 03:34:25;;;;;;;8.82;2.92;;;10.40;99.90;;;;;;5134160;28;20061;-77
2023/05/31 03:36:50;;;;;;;8.52;3.60;;;10.40;99.90;;;;;;5082296;28;20479;-77
2023/05/31 03:39:16;;;;;;;7.85;3.50;;;10.40;99.90;;;;;;5116738;28;20043;-76
2023/05/31 03:41:42;;;;;;;7.80;3.47;;;10.40;99.90;;;;;;5099062;28;20475;-76
2023/05/31 03:44:07;;;;;;;7.45;3.75;;;10.40;99.90;;;;;;5134021;28;20095;-77
2023/05/31 03:46:33;;;;;;;8.60;3.15;;;10.40;99.90;;;;;;5133990;28;20077;-77
2023/05/31 03:48:59;;;;;;;9.45;3.30;;;10.40;99.90;;;;;;5136677;27;20043;-77
2023/05/31 03:51:25;;;;;;;9.25;2.95;;;10.40;99.90;;;;;;5119707;27;20130;-76
2023/05/31 03:53:51;;;;;;;6.65;3.03;;;10.50;99.90;;;;;;5103256;27;20139;-77
2023/05/31 03:56:16;;;;;;;9.48;3.10;;;10.50;99.90;;;;;;5138017;27;20080;-76
2023/05/31 03:58:42;;;;;;;7.20;2.90;;;10.50;99.90;;;;;;5119212;27;20402;-77
2023/05/31 04:01:08;;;;;;;9.30;2.88;;;10.50;99.90;;;;;;5137944;27;20046;-77
2023/05/31 04:03:36;;;;;;;6.63;2.60;;;10.50;99.90;;;;;;5137842;27;20055;-77
2023/05/31 04:06:02;;;;;;;8.10;3.03;;;10.50;99.90;;;;;;5120572;27;20348;-77
2023/05/31 04:08:27;;;;;;;8.98;2.88;;;10.50;99.90;;;;;;5086026;27;20050;-77
2023/05/31 04:10:53;;;;;;;4.47;2.40;;;10.50;99.90;;;;;;5119156;27;20042;-77
2023/05/31 04:13:19;;;;;;;5.90;2.78;;;10.60;99.90;;;;;;5137592;27;20046;-77
2023/05/31 04:15:45;;;;;;;5.93;2.22;;;10.60;99.90;;;;;;5138176;27;20180;-76
2023/05/31 04:18:10;;;;;;;8.32;2.70;;;10.60;99.90;;;;;;5119518;27;20078;-76
2023/05/31 04:20:36;;;;;;;8.00;3.05;;;10.60;99.90;;;;;;5102261;27;20043;-76
2023/05/31 04:23:02;;;;;;;7.45;2.70;;;10.70;99.90;;;;;;5137570;27;20043;-75
2023/05/31 04:25:27;;;;;;;5.78;2.55;;;10.70;99.90;;;;;;5137755;27;20043;-76
2023/05/31 04:27:53;;;;;;;5.43;2.25;;;10.80;99.90;;;;;;5118973;27;20462;-76
2023/05/31 04:30:19;;;;;;;6.93;2.55;;;10.70;99.90;;;;;;5137382;27;20051;-75
2023/05/31 04:32:46;;;;;;;10.35;2.90;;;10.80;99.90;;;;;;5119945;27;20049;-76
2023/05/31 04:35:12;;;;;;;5.68;2.95;;;10.90;99.90;;;;;;5119087;27;20059;-76
2023/05/31 04:37:39;;;;;;;7.20;3.25;;;10.80;99.90;;;;;;5119206;27;20054;-76
2023/05/31 04:40:05;;;;;;;4.28;2.20;;;10.90;99.90;;;;;;5118928;27;20042;-76
2023/05/31 04:42:31;;;;;;;6.68;2.35;;;10.90;99.90;;;;;;5101852;27;20103;-76
2023/05/31 04:44:58;;;;;;;4.72;2.58;;;10.90;99.90;;;;;;5136371;27;20040;-76
2023/05/31 04:47:28;;;;;;;8.75;2.80;;;10.90;99.90;;;;;;5118617;27;20043;-76
2023/05/31 04:49:57;;;;;;;5.95;2.72;;;11.10;99.90;;;;;;5137152;27;20054;-76
2023/05/31 04:52:30;;;;;;;9.18;2.60;;;11.00;99.90;;;;;;5136874;27;20054;-76
2023/05/31 04:54:58;;;;;;;4.47;2.30;;;11.10;99.90;;;;;;5136884;27;20054;-76
2023/05/31 04:57:24;;;;;;;8.75;2.75;;;11.10;99.90;;;;;;5137693;27;20068;-76
2023/05/31 04:59:50;;;;;;;6.43;2.50;;;11.20;99.90;;;;;;5136569;27;20503;-76
2023/05/31 05:02:20;;;;;;;8.50;2.70;;;11.20;99.90;;;;;;5137313;27;20135;-76
2023/05/31 05:04:47;;;;;;;6.00;2.58;;;11.30;99.90;;;;;;5118605;27;20058;-76
2023/05/31 05:07:13;;;;;;;8.10;3.05;;;11.30;99.90;;;;;;5101647;27;20047;-75
2023/05/31 05:09:39;;;;;;;6.13;2.80;;;11.40;99.90;;;;;;5118542;27;20051;-76
2023/05/31 05:12:06;;;;;;;6.90;2.75;;;11.50;99.90;;;;;;5118187;27;20074;-76
2023/05/31 05:14:32;;;;;;;6.85;3.10;;;11.50;99.90;;;;;;5119057;27;20057;-75
2023/05/31 05:16:58;;;;;;;6.03;2.97;;;11.60;99.90;;;;;;5100992;27;20138;-75
2023/05/31 05:19:23;;;;;;;9.93;3.42;;;11.70;99.90;;;;;;5119077;27;20047;-76
2023/05/31 05:21:49;;;;;;;8.00;2.90;;;11.70;99.90;;;;;;5136365;27;20043;-75
2023/05/31 05:24:16;;;;;;;7.68;3.42;;;11.80;99.90;;;;;;5101969;27;20116;-76
2023/05/31 05:26:42;;;;;;;8.18;3.58;;;11.90;99.90;;;;;;5136732;27;20079;-75
2023/05/31 05:29:07;;;;;;;5.68;3.80;;;11.90;99.90;;;;;;5136408;27;20055;-75
2023/05/31 05:31:33;;;;;;;6.82;3.33;;;12.00;99.90;;;;;;5136191;27;20047;-75
2023/05/31 05:33:59;;;;;;;7.28;2.97;;;12.00;99.90;;;;;;5136171;27;20475;-75
2023/05/31 05:36:25;;;;;;;7.38;3.42;;;12.10;99.90;;;;;;5136152;27;20047;-75
2023/05/31 05:38:51;;;;;;;8.23;3.67;;;12.10;99.90;;;;;;5100671;27;20096;-75
2023/05/31 05:41:17;;;;;;;13.13;3.97;;;12.20;99.90;;;;;;5135880;27;20079;-75
2023/05/31 05:43:43;;;;;;;7.25;3.45;;;12.20;99.90;;;;;;5117603;27;20125;-74
2023/05/31 05:46:08;;;;;;;7.30;2.95;;;12.30;99.90;;;;;;5136037;27;20387;-75
2023/05/31 05:48:34;;;;;;;6.75;3.42;;;12.40;99.90;;;;;;5117424;27;20184;-75
2023/05/31 05:51:00;;;;;;;6.50;2.53;;;12.40;99.90;;;;;;5135722;27;20043;-75
2023/05/31 05:53:26;;;;;;;7.38;2.90;;;12.50;99.90;;;;;;5136328;27;20125;-74
2023/05/31 05:55:53;;;;;;;6.95;3.10;;;12.50;99.90;;;;;;5135792;27;20079;-76
2023/05/31 05:58:19;;;;;;;5.78;2.38;;;12.60;99.90;;;;;;5117378;27;20090;-74
2023/05/31 06:00:46;;;;;;;6.65;2.40;;;12.60;99.90;;;;;;5135604;27;20394;-74
2023/05/31 06:03:15;;;;;;;7.60;2.45;;;12.70;99.90;;;;;;5135544;27;20047;-75
2023/05/31 06:05:44;;;;;;;7.53;2.50;;;12.70;99.90;;;;;;5135399;27;20103;-74
2023/05/31 06:08:11;;;;;;;6.38;2.28;;;12.80;99.90;;;;;;5118223;27;20058;-75
2023/05/31 06:10:37;;;;;;;3.60;1.80;;;12.80;99.90;;;;;;5135230;27;20054;-75
2023/05/31 06:13:05;;;;;;;5.10;1.75;;;12.90;99.90;;;;;;5117583;27;20043;-75
2023/05/31 06:15:30;;;;;;;5.88;1.70;;;12.90;99.90;;;;;;5135346;27;20058;-75
2023/05/31 06:17:56;;;;;;;5.60;1.80;;;12.90;99.90;;;;;;5135499;27;20051;-75
2023/05/31 06:20:22;;;;;;;3.65;1.52;;;13.00;99.90;;;;;;5135064;27;20088;-74
2023/05/31 06:22:49;;;;;;;3.33;1.70;;;13.00;99.90;;;;;;5135120;27;20085;-74
2023/05/31 06:25:17;;;;;;;4.50;1.67;;;13.00;99.90;;;;;;5100188;27;20043;-76
2023/05/31 06:27:45;;;;;;;3.65;1.83;;;13.10;99.90;;;;;;5135560;27;20050;-74
2023/05/31 06:30:12;;;;;;;7.35;1.77;;;13.10;99.90;;;;;;5120426;27;20074;-74
2023/05/31 06:32:38;;;;;;;4.63;1.70;;;13.10;99.90;;;;;;5137816;27;20057;-75
2023/05/31 06:35:05;;;;;;;5.68;1.40;;;13.20;99.90;;;;;;5117010;27;20122;-75
2023/05/31 06:37:31;;;;;;;4.80;1.80;;;13.20;99.90;;;;;;5116835;27;20047;-75
2023/05/31 06:39:57;;;;;;;5.82;1.92;;;13.20;99.90;;;;;;5117229;27;20103;-76
2023/05/31 06:42:22;;;;;;;5.20;1.90;;;13.30;99.90;;;;;;5134903;27;20398;-75
2023/05/31 06:44:48;;;;;;;4.68;1.55;;;13.40;99.90;;;;;;5116888;27;20051;-75
2023/05/31 06:47:14;;;;;;;3.60;1.27;;;13.50;99.90;;;;;;5116812;27;20051;-76
2023/05/31 06:49:40;;;;;;;5.40;1.75;;;13.50;99.90;;;;;;5082957;27;20553;-76
2023/05/31 06:52:06;;;;;;;5.43;1.63;;;13.50;99.90;;;;;;5116798;27;20050;-74
2023/05/31 06:54:38;;;;;;;4.70;1.77;;;13.60;99.90;;;;;;5135439;27;20047;-75
2023/05/31 06:57:05;;;;;;;4.50;1.25;;;13.60;99.90;;;;;;5135430;27;20079;-75
2023/05/31 06:59:31;;;;;;;3.55;1.50;;;13.70;99.90;;;;;;5134751;27;20510;-75
2023/05/31 07:01:57;;;;;;;3.38;1.40;;;13.70;99.90;;;;;;5116781;27;20374;-75
2023/05/31 07:04:23;;;;;;;4.65;1.35;;;13.80;99.90;;;;;;5116464;27;20043;-76
2023/05/31 07:06:49;;;;;;;4.63;1.35;;;13.90;99.90;;;;;;5134748;27;20379;-75
2023/05/31 07:09:15;;;;;;;5.63;1.30;;;13.90;99.90;;;;;;5116917;28;20135;-75
2023/05/31 07:11:41;;;;;;;4.07;1.75;;;14.00;99.90;;;;;;5116560;28;20088;-75
2023/05/31 07:14:07;;;;;;;4.82;2.05;;;14.00;99.90;;;;;;5135410;28;20039;-79
2023/05/31 07:16:33;;;;;;;3.75;1.33;;;14.10;99.90;;;;;;5116798;28;20054;-77
2023/05/31 07:18:59;;;;;;;6.85;1.45;;;14.10;99.90;;;;;;5116406;28;20482;-76
2023/05/31 07:21:25;;;;;;;3.38;1.10;;;14.20;99.90;;;;;;5099149;28;20082;-77
2023/05/31 07:23:51;;;;;;;4.85;1.20;;;14.20;99.90;;;;;;5136163;27;20046;-78
2023/05/31 07:26:17;;;;;;;4.90;1.30;;;14.30;99.90;;;;;;5138586;27;20042;-76
2023/05/31 07:28:44;;;;;;;5.55;1.58;;;14.40;99.90;;;;;;5120019;27;20137;-77
2023/05/31 07:31:10;;;;;;;4.88;1.50;;;14.40;99.90;;;;;;5103479;27;20049;-76
2023/05/31 07:33:36;;;;;;;4.03;1.30;;;14.50;99.90;;;;;;5120933;27;20051;-75
2023/05/31 07:36:02;;;;;;;6.03;1.70;;;14.60;99.90;;;;;;5120195;27;20070;-77
2023/05/31 07:38:28;;;;;;;4.30;1.65;;;14.60;99.90;;;;;;5139047;27;20039;-77
2023/05/31 07:40:54;;;;;;;5.75;1.92;;;14.70;99.90;;;;;;5121085;27;20425;-77
2023/05/31 07:43:21;;;;;;;6.18;1.77;;;14.80;99.90;;;;;;5138499;27;20092;-76
2023/05/31 07:45:50;;;;;;;2.65;1.52;;;14.90;99.90;;;;;;5138245;27;20051;-77
2023/05/31 07:48:19;;;;;;;5.10;1.17;;;14.90;99.90;;;;;;5120488;27;20039;-75
2023/05/31 07:50:45;;;;;;;3.58;1.48;;;15.00;99.90;;;;;;5138153;27;20100;-76
2023/05/31 07:53:12;;;;;;;3.00;1.10;;;15.00;99.90;;;;;;5138264;27;20043;-74
2023/05/31 07:55:37;;;;;;;3.35;1.33;;;15.10;99.90;;;;;;5138217;27;20039;-77
2023/05/31 07:58:03;;;;;;;5.03;1.50;;;15.20;99.90;;;;;;5120017;27;20509;-76
2023/05/31 08:00:29;;;;;;;7.47;1.60;;;15.20;99.90;;;;;;5137966;27;20363;-75
2023/05/31 08:02:55;;;;;;;4.15;1.25;;;15.30;99.90;;;;;;5119777;27;20431;-76
2023/05/31 08:05:21;;;;;;;3.40;1.20;;;15.40;99.90;;;;;;5119753;27;20179;-75
2023/05/31 08:07:48;;;;;;;2.60;1.50;;;15.50;99.90;;;;;;5103602;27;20095;-75
2023/05/31 08:10:15;;;;;;;5.05;1.80;;;15.50;99.90;;;;;;5137891;27;20043;-74
2023/05/31 08:12:41;;;;;;;4.43;1.50;;;15.60;99.90;;;;;;5138630;27;20070;-75
2023/05/31 08:15:07;;;;;;;3.75;1.30;;;15.60;99.90;;;;;;5102419;27;20047;-75
2023/05/31 08:17:33;;;;;;;5.85;1.52;;;15.60;99.90;;;;;;5137776;27;20119;-75
2023/05/31 08:19:58;;;;;;;4.10;1.10;;;15.60;99.90;;;;;;5119517;27;20051;-74
2023/05/31 08:22:24;;;;;;;5.35;1.67;;;15.70;99.90;;;;;;5138963;27;20054;-75
2023/05/31 08:24:50;;;;;;;4.20;1.35;;;15.80;99.90;;;;;;5118958;27;20042;-74
2023/05/31 08:27:17;;;;;;;4.97;1.83;;;15.80;99.90;;;;;;5138043;27;20050;-75
2023/05/31 08:29:43;;;;;;;4.22;1.60;;;15.90;99.90;;;;;;5137642;27;20471;-76
2023/05/31 08:32:09;;;;;;;5.20;1.92;;;15.90;99.90;;;;;;5118213;28;20474;-76
2023/05/31 08:34:35;;;;;;;5.00;1.60;;;16.00;99.90;;;;;;5118488;28;20071;-76
2023/05/31 08:37:01;;;;;;;3.85;1.40;;;16.00;99.90;;;;;;5136176;28;20035;-76
2023/05/31 08:39:27;;;;;;;6.13;1.73;;;16.10;99.90;;;;;;5118076;28;20054;-76
2023/05/31 08:42:01;;;;;;;3.67;1.33;;;16.10;99.90;;;;;;5118912;28;20043;-75
2023/05/31 08:44:29;;;;;;;4.72;1.50;;;16.10;99.90;;;;;;5118827;28;20042;-75
2023/05/31 08:47:03;;;;;;;3.92;1.08;;;16.20;99.90;;;;;;5084785;28;20432;-75
2023/05/31 08:49:30;;;;;;;5.35;1.40;;;16.20;99.90;;;;;;5117667;28;20117;-75
2023/05/31 08:51:58;;;;;;;5.53;1.30;;;16.30;99.90;;;;;;5118349;28;20055;-76
2023/05/31 08:54:25;;;;;;;3.67;1.30;;;16.30;99.90;;;;;;5117839;28;20079;-75
2023/05/31 08:56:51;;;;;;;5.47;1.30;;;16.40;99.90;;;;;;5117476;28;20554;-74
2023/05/31 08:59:18;;;;;;;5.65;1.30;;;16.50;99.90;;;;;;5136073;28;20360;-75
2023/05/31 09:01:45;;;;;;;5.13;1.40;;;16.50;99.90;;;;;;5118307;28;20043;-74
2023/05/31 09:04:13;;;;;;;5.95;1.70;;;16.60;99.90;;;;;;5135794;28;20096;-76
2023/05/31 09:06:39;;;;;;;5.85;1.67;;;16.70;99.90;;;;;;5100665;28;20043;-74
2023/05/31 09:09:08;;;;;;;7.97;1.85;;;16.70;99.90;;;;;;5100882;28;20043;-75
2023/05/31 09:11:39;;;;;;;6.90;2.35;;;16.80;99.90;;;;;;5136294;28;20054;-74
2023/05/31 09:14:05;;;;;;;7.10;1.65;;;16.80;99.90;;;;;;5135658;28;20043;-75
2023/05/31 09:16:31;;;;;;;8.45;2.20;;;16.80;99.90;;;;;;5135288;28;20039;-74
2023/05/31 09:19:14;;;;;;;9.30;2.58;;;16.80;99.90;;;;;;5118328;28;20043;-74
2023/05/31 09:21:41;;;;;;;7.00;2.47;;;16.80;99.90;;;;;;5118368;28;20054;-73
2023/05/31 09:24:08;;;;;;;7.05;3.08;;;16.80;99.90;;;;;;5135489;28;20043;-74
2023/05/31 09:26:34;;;;;;;7.32;2.80;;;16.80;99.90;;;;;;5135842;28;20078;-75
2023/05/31 09:29:00;;;;;;;9.98;2.85;;;16.80;99.90;;;;;;5074297;28;1116560;-74
2023/05/31 09:31:27;;;;;;;7.38;2.92;;;16.70;99.90;;;;;;5115758;28;20051;-74
2023/05/31 09:33:56;;;;;;;9.63;3.08;;;16.70;99.90;;;;;;5115721;28;20381;-73
2023/05/31 09:36:26;;;;;;;7.47;3.00;;;16.60;99.90;;;;;;5115669;28;20115;-75
2023/05/31 09:39:08;;;;;;;8.65;2.95;;;16.60;99.90;;;;;;5115338;28;20566;-72
2023/05/31 09:41:33;;;;;;;9.52;2.90;;;16.60;99.90;;;;;;5114262;28;20165;-74
2023/05/31 09:44:00;;;;;;;7.20;2.85;;;16.60;99.90;;;;;;5115627;28;20469;-73
2023/05/31 09:46:26;;;;;;;5.47;2.70;;;16.60;99.90;;;;;;5114117;28;20043;-74
2023/05/31 09:49:00;;;;;;;7.78;2.75;;;16.60;99.90;;;;;;5115391;28;20063;-74
2023/05/31 09:51:26;;;;;;;8.55;3.30;;;16.60;99.90;;;;;;5114259;28;20438;-76
2023/05/31 09:53:55;;;;;;;7.00;3.25;;;16.70;99.90;;;;;;5114594;28;20043;-74
2023/05/31 09:56:21;;;;;;;6.25;2.90;;;16.60;99.90;;;;;;5114335;28;20429;-75
2023/05/31 09:58:48;;;;;;;7.03;2.85;;;16.60;99.90;;;;;;5114291;28;20426;-75
2023/05/31 10:01:15;;;;;;;6.93;3.35;;;16.70;99.90;;;;;;5115804;28;20086;-72
2023/05/31 10:03:47;;;;;;;10.77;3.80;;;16.70;99.90;;;;;;5115179;28;20126;-72
2023/05/31 10:06:15;;;;;;;8.23;3.80;;;16.70;99.90;;;;;;5114151;28;20418;-72
2023/05/31 10:08:42;;;;;;;7.95;3.25;;;16.70;99.90;;;;;;5115074;28;20180;-72
2023/05/31 10:11:12;;;;;;;5.78;3.13;;;16.70;99.90;;;;;;5114679;28;20502;-73
2023/05/31 10:13:43;;;;;;;7.55;3.25;;;16.70;99.90;;;;;;5114907;28;20151;-74
2023/05/31 10:16:10;;;;;;;8.63;2.92;;;16.80;99.90;;;;;;5115074;28;20090;-75
2023/05/31 10:18:48;;;;;;;6.32;3.10;;;16.80;99.90;;;;;;5115024;28;20047;-71
2023/05/31 10:21:24;;;;;;;5.07;2.90;;;16.80;99.90;;;;;;5115072;28;20062;-74
2023/05/31 10:24:11;;;;;;;7.15;3.55;;;16.80;99.90;;;;;;5096567;28;20047;-74
2023/05/31 10:27:04;;;;;;;6.63;2.83;;;16.90;99.90;;;;;;5114698;28;20031;-75
2023/05/31 10:29:35;;;;;;;;;;;16.90;99.90;;;;;;5117182;28;20139;-74
2023/05/31 10:32:13;;;;;;;6.68;3.38;;;17.60;99.90;;;;;;5096468;28;19920;-76
2023/05/31 10:34:39;;;;;;;10.25;4.13;;;16.90;99.90;;;;;;5113972;28;20057;-71
2023/05/31 10:37:06;;;;;;;9.05;4.07;;;16.90;99.90;;;;;;5113042;28;20511;-74
2023/05/31 10:39:52;;;;;;;7.72;3.47;;;16.90;99.90;;;;;;5113397;28;20475;-74
2023/05/31 10:42:27;;;;;;;6.68;3.63;;;16.90;99.90;;;;;;5117618;28;20043;-74
2023/05/31 10:45:21;;;;;;;8.88;3.58;;;16.90;99.90;;;;;;5114278;28;20054;-74
2023/05/31 10:47:57;;;;;;;8.95;3.58;;;17.00;99.90;;;;;;5115078;27;20043;-73
2023/05/31 10:50:23;;;;;;;6.13;3.15;;;17.00;99.90;;;;;;5114276;28;20122;-74
2023/05/31 10:52:52;;;;;;;5.78;3.40;;;17.00;99.90;;;;;;5113146;28;20043;-73
2023/05/31 10:55:22;;;;;;;5.45;3.55;;;17.10;99.90;;;;;;5114443;28;20055;-74
2023/05/31 10:57:54;;;;;;;5.53;3.28;;;17.10;99.90;;;;;;5114518;28;20108;-75
2023/05/31 11:00:24;;;;;;;7.40;3.30;;;17.10;99.90;;;;;;5113315;28;20506;-74
2023/05/31 11:02:51;;;;;;;6.13;3.17;;;17.10;99.90;;;;;;5113024;28;20278;-74
2023/05/31 11:05:22;;;;;;;7.90;3.60;;;17.20;99.90;;;;;;5113068;28;20052;-75
2023/05/31 11:07:49;;;;;;;4.40;2.55;;;17.20;99.90;;;;;;5078945;28;20468;-75
2023/05/31 11:10:30;;;;;;;9.55;2.75;;;17.20;99.90;;;;;;5112909;28;20097;-76
2023/05/31 11:13:01;;;;;;;5.65;2.85;;;17.30;99.90;;;;;;5114148;28;20056;-74
2023/05/31 11:15:42;;;;;;;7.90;2.90;;;17.40;99.90;;;;;;5114116;28;20044;-77
2023/05/31 11:18:25;;;;;;;6.85;2.72;;;17.40;99.90;;;;;;5114002;28;20048;-75
2023/05/31 11:20:51;;;;;;;5.57;2.78;;;17.40;99.90;;;;;;5112806;28;20142;-77
2023/05/31 11:23:17;;;;;;;6.78;2.78;;;17.50;99.90;;;;;;5113375;28;20194;-77
2023/05/31 11:25:43;;;;;;;6.80;2.90;;;17.50;99.90;;;;;;5112906;28;20044;-78
2023/05/31 11:28:10;;;;;;;3.42;2.20;;;17.50;99.90;;;;;;5112572;28;20060;-75
2023/05/31 11:30:37;;;;;;;7.80;2.53;;;17.50;99.90;;;;;;5114779;28;20056;-77
2023/05/31 11:33:13;;;;;;;6.28;2.67;;;17.50;99.90;;;;;;5114529;28;20047;-75
2023/05/31 11:35:39;;;;;;;8.52;3.22;;;17.60;99.90;;;;;;5114874;28;20112;-77
2023/05/31 11:38:06;;;;;;;5.68;2.50;;;17.60;99.90;;;;;;5096038;28;20493;-76
2023/05/31 11:40:32;;;;;;;4.18;2.20;;;17.70;99.90;;;;;;5113235;28;20402;-77
2023/05/31 11:43:06;;;;;;;6.60;2.30;;;17.70;99.90;;;;;;5095949;28;20081;-74
2023/05/31 11:45:33;;;;;;;5.55;1.73;;;17.80;99.90;;;;;;5113798;28;20044;-74
2023/05/31 11:48:34;;;;;;;5.38;1.77;;;17.80;99.90;;;;;;5112835;28;20084;-75
2023/05/31 11:51:01;;;;;;;8.50;2.65;;;17.80;99.90;;;;;;5095740;28;20047;-73
2023/05/31 11:53:28;;;;;;;6.82;2.33;;;17.80;99.90;;;;;;5112427;28;20047;-74
2023/05/31 11:55:53;;;;;;;4.88;1.85;;;17.80;99.90;;;;;;5113168;28;20097;-74
2023/05/31 11:58:21;;;;;;;9.10;2.55;;;17.90;99.90;;;;;;5113728;28;20437;-75
2023/05/31 12:00:47;;;;;;;7.50;2.05;;;18.00;99.90;;;;;;5112484;28;20048;-75
2023/05/31 12:03:17;;;;;;;10.07;2.95;;;17.90;99.90;;;;;;5095736;28;20100;-73
2023/05/31 12:05:51;;;;;;;5.28;2.58;;;17.90;99.90;;;;;;5112627;28;20050;-73
2023/05/31 12:08:17;;;;;;;7.45;2.38;;;17.90;99.90;;;;;;5113358;28;20563;-74
2023/05/31 12:10:45;;;;;;;3.25;1.77;;;17.90;99.90;;;;;;5098635;28;20051;-74
2023/05/31 12:13:11;;;;;;;8.98;2.67;;;17.90;99.90;;;;;;5116414;28;20047;-75
2023/05/31 12:15:37;;;;;;;5.13;2.17;;;18.00;99.90;;;;;;5117341;28;20093;-75
2023/05/31 12:18:02;;;;;;;6.40;2.85;;;18.00;99.90;;;;;;5117343;28;20051;-76
2023/05/31 12:20:33;;;;;;;8.10;2.60;;;18.00;99.90;;;;;;5066074;28;20043;-75
2023/05/31 12:23:20;;;;;;;7.82;2.53;;;18.00;99.90;;;;;;5116841;28;20062;-76
2023/05/31 12:25:50;;;;;;;5.70;2.10;;;18.10;99.90;;;;;;5099427;28;20045;-76
2023/05/31 12:28:17;;;;;;;8.02;2.22;;;18.00;99.90;;;;;;5115983;28;20089;-75
2023/05/31 12:30:44;;;;;;;4.10;2.35;;;18.10;99.90;;;;;;5115854;28;20127;-77
2023/05/31 12:33:11;;;;;;;6.13;2.40;;;18.10;99.90;;;;;;5116299;28;20044;-75
2023/05/31 12:35:41;;;;;;;4.95;2.33;;;18.10;99.90;;;;;;5117016;28;20039;-78
2023/05/31 12:38:07;;;;;;;4.25;2.25;;;18.10;99.90;;;;;;5081820;28;20043;-77
2023/05/31 12:40:37;;;;;;;8.35;2.25;;;18.10;99.90;;;;;;5117642;28;20126;-76
2023/05/31 12:43:02;;;;;;;7.00;2.08;;;18.10;99.90;;;;;;5115786;28;20487;-77
2023/05/31 12:45:28;;;;;;;4.22;1.80;;;18.10;99.90;;;;;;5082024;28;20051;-80
2023/05/31 12:47:58;;;;;;;3.55;2.25;;;18.10;99.90;;;;;;5098756;28;20048;-77
2023/05/31 12:50:27;;;;;;;6.00;2.30;;;18.10;99.90;;;;;;5116596;28;20096;-76
2023/05/31 12:52:57;;;;;;;5.60;2.17;;;18.10;99.90;;;;;;5116535;28;20087;-79